Terminal Aerodrome Forecast
Issued by NWS Portland, OR

Home | Current Version | Previous Version | Text Only | Print | Product List | Glossary On
Versions: 1 2 3 4 5 6 7 8 9 10 11 12 13 14 15 16 17 18 19 20 21 22 23 24 25 26 27 28 29 30 31 32 33 34 35 36 37 38 39 40 41 42 43 44 45 46 47 48 49
609
FTUS46 KPQR 171203 AAA
TAFPDX
TAF AMD
KPDX 171203Z 1712/1812 12015KT P6SM SCT050 OVC100
     FM171400 12015KT P6SM -FZRA BKN050 OVC080
     FM171630 12015G22KT P6SM VCSH SCT030 BKN050 OVC080
     FM172200 12015G25KT P6SM -FZRA SCT030 OVC050
     FM180800 12015KT 6SM -FZRA BR BKN030 OVC050=

USA.gov is the U.S. government's official web portal to all federal, state and local government web resources and services.